Time;durP1;ratioP1;P1;durP2;ratioP2;P2;SDS_P1;SDS_P2;PMS_P1;PMS_P2;Temp;Humidity;BMP_temperature;BMP_pressure;BME280_temperature;BME280_humidity;BME280_pressure;Samples;Min_cycle;Max_cycle;Signal;HPM_P1;HPM_P2
2020/12/30 00:01:42;;;;;;;10.37;6.23;;;5.30;99.90;;;;;;5073464;28;20773;-73
2020/12/30 00:04:09;;;;;;;12.93;6.50;;;5.30;99.90;;;;;;5072377;28;20711;-74
2020/12/30 00:06:36;;;;;;;12.13;6.00;;;5.30;99.90;;;;;;5071315;28;20212;-76
2020/12/30 00:09:02;;;;;;;9.57;5.93;;;5.30;99.90;;;;;;5073396;28;20239;-74
2020/12/30 00:11:28;;;;;;;12.50;6.10;;;5.30;99.90;;;;;;5070918;28;20281;-74
2020/12/30 00:13:55;;;;;;;12.23;7.07;;;5.30;99.90;;;;;;5073515;28;20220;-75
2020/12/30 00:16:21;;;;;;;10.77;5.97;;;5.30;99.90;;;;;;5071423;28;20724;-74
2020/12/30 00:18:48;;;;;;;13.13;6.27;;;5.30;99.90;;;;;;5071735;28;20730;-74
2020/12/30 00:21:15;;;;;;;11.17;6.00;;;5.40;99.90;;;;;;5072289;28;20243;-74
2020/12/30 00:23:41;;;;;;;11.57;6.10;;;5.30;99.90;;;;;;5070198;28;20572;-74
2020/12/30 00:26:08;;;;;;;10.40;5.53;;;5.30;99.90;;;;;;5069667;28;20247;-74
2020/12/30 00:28:34;;;;;;;10.10;5.43;;;5.30;99.90;;;;;;5069784;28;20280;-74
2020/12/30 00:31:00;;;;;;;10.67;5.80;;;5.40;99.90;;;;;;5071592;28;20284;-75
2020/12/30 00:33:27;;;;;;;10.17;5.87;;;5.40;99.90;;;;;;5072436;28;20646;-74
2020/12/30 00:35:53;;;;;;;13.50;6.90;;;5.40;99.90;;;;;;5072608;28;20701;-74
2020/12/30 00:38:21;;;;;;;11.43;6.53;;;5.40;99.90;;;;;;5070238;28;20213;-75
2020/12/30 00:40:47;;;;;;;12.73;6.43;;;5.40;99.90;;;;;;5071322;28;20223;-75
2020/12/30 00:43:14;;;;;;;12.23;6.40;;;5.30;99.90;;;;;;5070580;28;20619;-76
2020/12/30 00:45:41;;;;;;;12.47;7.03;;;5.30;99.90;;;;;;5072548;28;20337;-76
2020/12/30 00:48:08;;;;;;;10.23;6.03;;;5.30;99.90;;;;;;5071907;28;20292;-76
2020/12/30 00:50:34;;;;;;;12.00;7.07;;;5.30;99.90;;;;;;5072092;28;20669;-75
2020/12/30 00:53:00;;;;;;;12.37;6.90;;;5.30;99.90;;;;;;5070224;28;20300;-76
2020/12/30 00:55:28;;;;;;;12.10;7.10;;;5.30;99.90;;;;;;5067597;28;20209;-76
2020/12/30 00:57:54;;;;;;;16.30;7.07;;;5.30;99.90;;;;;;5072438;28;20737;-75
2020/12/30 01:00:21;;;;;;;11.67;6.33;;;5.30;99.90;;;;;;5069759;28;20717;-76
2020/12/30 01:02:47;;;;;;;13.57;6.60;;;5.30;99.90;;;;;;5066554;28;20335;-75
2020/12/30 01:05:13;;;;;;;12.13;7.20;;;5.30;99.90;;;;;;5068995;28;20607;-76
2020/12/30 01:07:40;;;;;;;15.17;7.40;;;5.30;99.90;;;;;;5072403;28;20684;-77
2020/12/30 01:10:07;;;;;;;12.33;6.77;;;5.30;99.90;;;;;;5072721;28;20728;-75
2020/12/30 01:12:37;;;;;;;14.47;7.30;;;5.30;99.90;;;;;;5072332;28;20592;-75
2020/12/30 01:15:03;;;;;;;13.07;6.13;;;5.30;99.90;;;;;;5071895;28;20297;-77
2020/12/30 01:17:30;;;;;;;11.13;6.30;;;5.30;99.90;;;;;;5073178;28;20296;-75
2020/12/30 01:19:56;;;;;;;13.57;6.90;;;5.30;99.90;;;;;;5068769;28;20297;-75
2020/12/30 01:22:23;;;;;;;10.33;6.27;;;5.30;99.90;;;;;;5069106;28;20229;-75
2020/12/30 01:24:49;;;;;;;12.70;7.70;;;5.30;99.90;;;;;;5072776;28;20212;-75
2020/12/30 01:27:16;;;;;;;11.50;6.30;;;5.30;99.90;;;;;;5070894;28;20710;-75
2020/12/30 01:29:43;;;;;;;13.90;6.63;;;5.30;99.90;;;;;;5072357;28;20209;-75
2020/12/30 01:32:10;;;;;;;13.93;6.83;;;5.30;99.90;;;;;;5072051;28;20304;-75
2020/12/30 01:34:36;;;;;;;12.93;6.30;;;5.40;99.90;;;;;;5069248;28;20642;-76
2020/12/30 01:37:03;;;;;;;9.90;5.93;;;5.30;99.90;;;;;;5071076;28;20304;-75
2020/12/30 01:39:29;;;;;;;13.17;6.57;;;5.40;99.90;;;;;;5070687;28;20233;-74
2020/12/30 01:41:59;;;;;;;13.07;6.37;;;5.40;99.90;;;;;;5068762;28;20363;-73
2020/12/30 01:44:25;;;;;;;12.80;6.60;;;5.40;99.90;;;;;;5071193;28;20255;-75
2020/12/30 01:46:53;;;;;;;11.70;6.90;;;5.40;99.90;;;;;;5073054;28;20288;-76
2020/12/30 01:49:21;;;;;;;11.93;6.27;;;5.40;99.90;;;;;;5071681;28;20619;-74
2020/12/30 01:51:52;;;;;;;14.37;6.33;;;5.40;99.90;;;;;;5072590;28;20205;-75
2020/12/30 01:54:19;;;;;;;10.60;6.40;;;5.50;99.90;;;;;;5072626;28;20202;-74
2020/12/30 01:56:47;;;;;;;11.27;6.40;;;5.50;99.90;;;;;;5075408;28;20197;-75
2020/12/30 01:59:17;;;;;;;13.73;6.43;;;5.50;99.90;;;;;;5072950;28;20218;-75
2020/12/30 02:01:47;;;;;;;11.43;6.10;;;5.50;99.90;;;;;;5074564;28;20311;-76
2020/12/30 02:04:19;;;;;;;11.73;6.20;;;5.50;99.90;;;;;;5074646;28;20659;-75
2020/12/30 02:06:45;;;;;;;11.23;6.87;;;5.50;99.90;;;;;;5071460;28;20663;-75
2020/12/30 02:09:13;;;;;;;17.20;7.90;;;5.50;99.90;;;;;;5070355;28;20232;-76
2020/12/30 02:11:39;;;;;;;13.43;7.30;;;5.40;99.90;;;;;;5074235;28;20252;-75
2020/12/30 02:14:07;;;;;;;15.00;8.30;;;5.40;99.90;;;;;;5071636;28;20205;-74
2020/12/30 02:16:47;;;;;;;14.30;7.03;;;5.30;99.90;;;;;;5074244;28;20204;-76
2020/12/30 02:19:15;;;;;;;12.73;6.83;;;5.30;99.90;;;;;;5073998;28;20201;-75
2020/12/30 02:21:42;;;;;;;11.80;6.60;;;5.30;99.90;;;;;;5072931;28;20789;-75
2020/12/30 02:24:11;;;;;;;11.73;6.50;;;5.30;99.90;;;;;;5073143;28;20292;-75
2020/12/30 02:26:38;;;;;;;11.40;6.70;;;5.30;99.90;;;;;;5071578;28;20208;-75
2020/12/30 02:29:05;;;;;;;11.23;6.60;;;5.30;99.90;;;;;;5075028;28;20327;-74
2020/12/30 02:31:31;;;;;;;13.20;7.07;;;5.30;99.90;;;;;;5074943;28;20738;-76
2020/12/30 02:33:57;;;;;;;11.50;6.47;;;5.30;99.90;;;;;;5066757;28;20542;-75
2020/12/30 02:36:24;;;;;;;11.13;6.37;;;5.30;99.90;;;;;;5074402;28;20548;-74
2020/12/30 02:38:53;;;;;;;11.20;6.97;;;5.40;99.90;;;;;;5067451;28;20215;-75
2020/12/30 02:41:20;;;;;;;13.13;6.00;;;5.40;99.90;;;;;;5073226;28;20266;-73
2020/12/30 02:43:48;;;;;;;10.50;6.30;;;5.40;99.90;;;;;;5074557;28;20220;-75
2020/12/30 02:46:15;;;;;;;9.93;5.70;;;5.40;99.90;;;;;;5071648;28;20288;-75
2020/12/30 02:48:41;;;;;;;10.37;6.60;;;5.40;99.90;;;;;;5071895;28;20209;-75
2020/12/30 02:51:08;;;;;;;11.90;5.93;;;5.50;99.90;;;;;;5073657;28;20215;-75
2020/12/30 02:53:34;;;;;;;13.27;6.73;;;5.50;99.90;;;;;;5069017;28;20634;-75
2020/12/30 02:56:00;;;;;;;9.90;5.57;;;5.50;99.90;;;;;;5074667;28;20611;-75
2020/12/30 02:58:27;;;;;;;9.03;5.60;;;5.50;99.90;;;;;;5070478;28;20284;-75
2020/12/30 03:00:54;;;;;;;10.93;5.17;;;5.50;99.90;;;;;;5071073;28;20261;-74
2020/12/30 03:03:21;;;;;;;10.53;5.70;;;5.60;99.90;;;;;;5072317;28;20297;-74
2020/12/30 03:05:48;;;;;;;10.40;5.33;;;5.60;99.90;;;;;;5074992;28;20228;-74
2020/12/30 03:08:14;;;;;;;9.77;5.23;;;5.60;99.90;;;;;;5074798;28;20201;-75
2020/12/30 03:10:41;;;;;;;10.57;6.07;;;5.60;99.90;;;;;;5072969;28;20222;-75
2020/12/30 03:13:09;;;;;;;11.03;5.63;;;5.70;99.90;;;;;;5074095;28;20245;-75
2020/12/30 03:15:35;;;;;;;8.23;5.23;;;5.70;99.90;;;;;;5071379;28;20280;-75
2020/12/30 03:18:03;;;;;;;11.40;6.10;;;5.70;99.90;;;;;;5068278;28;20241;-74
2020/12/30 03:20:29;;;;;;;9.77;6.20;;;5.80;99.90;;;;;;5072909;28;20668;-75
2020/12/30 03:22:56;;;;;;;15.30;6.37;;;5.80;99.90;;;;;;5073330;28;20296;-75
2020/12/30 03:25:22;;;;;;;10.37;6.07;;;5.80;99.90;;;;;;5072526;28;20208;-76
2020/12/30 03:27:49;;;;;;;9.57;5.67;;;5.80;99.90;;;;;;5073512;28;20205;-75
2020/12/30 03:30:15;;;;;;;9.47;5.60;;;5.80;99.90;;;;;;5073821;28;20660;-74
2020/12/30 03:32:41;;;;;;;14.60;5.70;;;5.80;99.90;;;;;;5071288;28;20764;-75
2020/12/30 03:35:09;;;;;;;9.93;6.23;;;5.80;99.90;;;;;;5074721;28;20261;-75
2020/12/30 03:37:35;;;;;;;11.30;6.50;;;5.80;99.90;;;;;;5068614;28;20212;-75
2020/12/30 03:40:02;;;;;;;10.33;6.23;;;5.80;99.90;;;;;;5070749;28;20197;-75
2020/12/30 03:42:29;;;;;;;9.17;5.47;;;5.80;99.90;;;;;;5075474;28;20225;-76
2020/12/30 03:44:55;;;;;;;14.80;6.37;;;5.80;99.90;;;;;;5074995;28;20208;-75
2020/12/30 03:47:21;;;;;;;10.70;5.07;;;5.80;99.90;;;;;;5072231;28;20625;-75
2020/12/30 03:49:48;;;;;;;12.10;6.03;;;5.80;99.90;;;;;;5072580;28;20201;-75
2020/12/30 03:52:17;;;;;;;10.73;6.60;;;5.80;99.90;;;;;;5074271;28;20201;-75
2020/12/30 03:54:43;;;;;;;9.70;5.67;;;5.80;99.90;;;;;;5070034;28;20209;-75
2020/12/30 03:57:10;;;;;;;10.97;5.83;;;5.80;99.90;;;;;;5073433;28;20205;-75
2020/12/30 03:59:36;;;;;;;11.90;5.83;;;5.80;99.90;;;;;;5072023;28;20759;-75
2020/12/30 04:02:02;;;;;;;10.03;6.03;;;5.80;99.90;;;;;;5072189;28;20267;-75
2020/12/30 04:04:29;;;;;;;10.50;6.47;;;5.80;99.90;;;;;;5072013;28;20205;-74
2020/12/30 04:06:55;;;;;;;13.80;6.27;;;5.80;99.90;;;;;;5069420;28;20204;-74
2020/12/30 04:09:23;;;;;;;9.33;6.40;;;5.80;99.90;;;;;;5065490;28;20697;-76
2020/12/30 04:11:49;;;;;;;11.30;6.57;;;5.70;99.90;;;;;;5069661;28;20224;-75
2020/12/30 04:14:15;;;;;;;11.00;6.67;;;5.70;99.90;;;;;;5072265;28;20205;-76
2020/12/30 04:16:42;;;;;;;11.80;6.23;;;5.70;99.90;;;;;;5072319;28;20205;-75
2020/12/30 04:19:08;;;;;;;8.97;6.07;;;5.80;99.90;;;;;;5070403;28;20205;-76
2020/12/30 04:21:34;;;;;;;10.77;5.90;;;5.70;99.90;;;;;;5075856;28;20220;-76
2020/12/30 04:24:01;;;;;;;11.57;6.10;;;5.60;99.90;;;;;;5072863;28;20540;-75
2020/12/30 04:26:28;;;;;;;9.33;5.37;;;5.70;99.90;;;;;;5072260;28;20300;-75
2020/12/30 04:28:54;;;;;;;9.23;5.47;;;5.70;99.90;;;;;;5070130;28;20669;-75
2020/12/30 04:31:21;;;;;;;10.13;5.77;;;5.70;99.90;;;;;;5071752;28;20665;-76
2020/12/30 04:33:47;;;;;;;10.17;6.03;;;5.70;99.90;;;;;;5072829;28;20205;-76
2020/12/30 04:36:15;;;;;;;12.27;6.20;;;5.70;99.90;;;;;;5069484;28;20616;-75
2020/12/30 04:38:42;;;;;;;9.50;5.20;;;5.70;99.90;;;;;;5069683;28;20307;-75
2020/12/30 04:41:10;;;;;;;8.57;5.83;;;5.70;99.90;;;;;;5069028;28;20278;-75
2020/12/30 04:43:38;;;;;;;11.07;5.60;;;5.70;99.90;;;;;;5070649;28;20332;-74
2020/12/30 04:46:05;;;;;;;10.40;5.80;;;5.70;99.90;;;;;;5067330;28;20266;-75
2020/12/30 04:48:34;;;;;;;8.87;5.40;;;5.60;99.90;;;;;;5072574;28;20284;-75
2020/12/30 04:51:00;;;;;;;10.30;5.37;;;5.60;99.90;;;;;;5072811;28;20647;-75
2020/12/30 04:53:28;;;;;;;10.90;5.53;;;5.60;99.90;;;;;;5071565;28;20621;-76
2020/12/30 04:56:00;;;;;;;9.63;5.60;;;5.50;99.90;;;;;;5071410;28;20247;-75
2020/12/30 04:58:28;;;;;;;11.20;5.97;;;5.50;99.90;;;;;;5072274;28;20193;-75
2020/12/30 05:00:57;;;;;;;9.80;5.60;;;5.40;99.90;;;;;;5069465;28;20202;-75
2020/12/30 05:03:27;;;;;;;10.03;5.67;;;5.40;99.90;;;;;;5066939;28;20236;-76
2020/12/30 05:05:55;;;;;;;9.57;5.43;;;5.40;99.90;;;;;;5069450;28;20644;-76
2020/12/30 05:08:21;;;;;;;11.67;6.90;;;5.40;99.90;;;;;;5071686;28;20670;-75
2020/12/30 05:10:49;;;;;;;7.43;5.30;;;5.40;99.90;;;;;;5072187;28;20232;-75
2020/12/30 05:13:16;;;;;;;9.80;6.57;;;5.40;99.90;;;;;;5071883;28;20221;-76
2020/12/30 05:15:43;;;;;;;8.27;5.63;;;5.40;99.90;;;;;;5071267;28;20647;-76
2020/12/30 05:18:10;;;;;;;9.77;5.37;;;5.50;99.90;;;;;;5067464;28;20292;-74
2020/12/30 05:20:37;;;;;;;7.73;5.30;;;5.50;99.90;;;;;;5071598;28;20220;-75
2020/12/30 05:23:05;;;;;;;11.63;5.27;;;5.50;99.90;;;;;;5070104;28;20846;-76
2020/12/30 05:25:34;;;;;;;9.03;5.37;;;5.50;99.90;;;;;;5078000;28;20652;-77
2020/12/30 05:28:03;;;;;;;7.90;4.97;;;5.50;99.90;;;;;;5077659;28;20304;-77
2020/12/30 05:30:30;;;;;;;8.90;4.83;;;5.50;99.90;;;;;;5075149;28;20296;-77
2020/12/30 05:32:56;;;;;;;8.40;4.50;;;5.60;99.90;;;;;;5075724;28;20248;-75
2020/12/30 05:35:23;;;;;;;7.53;4.83;;;5.60;99.90;;;;;;5072817;28;20205;-76
2020/12/30 05:37:50;;;;;;;6.63;4.53;;;5.70;99.90;;;;;;5074956;28;20293;-75
2020/12/30 05:40:21;;;;;;;7.13;4.60;;;5.70;99.90;;;;;;5075586;28;20336;-75
2020/12/30 05:42:48;;;;;;;10.07;5.20;;;5.80;99.90;;;;;;5076377;28;20227;-76
2020/12/30 05:45:19;;;;;;;6.47;4.03;;;5.80;99.90;;;;;;5072532;28;20233;-76
2020/12/30 05:47:45;;;;;;;6.27;4.10;;;5.80;99.90;;;;;;5073332;28;20202;-75
2020/12/30 05:50:12;;;;;;;6.67;4.33;;;5.90;99.90;;;;;;5071271;28;20685;-75
2020/12/30 05:52:40;;;;;;;6.23;4.27;;;5.90;99.90;;;;;;5075260;28;20198;-75
2020/12/30 05:55:09;;;;;;;7.03;4.37;;;6.00;99.90;;;;;;5075572;28;20272;-76
2020/12/30 05:57:37;;;;;;;6.17;3.50;;;6.00;99.90;;;;;;5075992;28;20205;-76
2020/12/30 06:00:07;;;;;;;7.60;3.80;;;6.00;99.90;;;;;;5073313;28;20575;-75
2020/12/30 06:02:34;;;;;;;7.87;3.70;;;6.10;99.90;;;;;;5075807;28;20318;-76
2020/12/30 06:05:15;;;;;;;5.83;3.07;;;6.10;99.90;;;;;;5075093;28;20247;-75
2020/12/30 06:07:45;;;;;;;6.30;3.87;;;6.10;99.90;;;;;;5075432;28;20656;-75
2020/12/30 06:10:13;;;;;;;6.07;3.60;;;6.20;99.90;;;;;;5072410;28;20225;-75
2020/12/30 06:12:50;;;;;;;6.13;3.60;;;6.20;99.90;;;;;;5072347;28;20308;-75
2020/12/30 06:15:18;;;;;;;5.77;3.60;;;6.10;99.90;;;;;;5073062;28;20304;-75
2020/12/30 06:17:55;;;;;;;6.70;3.57;;;6.20;99.90;;;;;;5075617;28;20248;-75
2020/12/30 06:20:24;;;;;;;5.13;3.40;;;6.10;99.90;;;;;;5070985;28;20209;-75
2020/12/30 06:22:59;;;;;;;7.53;3.63;;;6.20;99.90;;;;;;5073686;28;20271;-76
2020/12/30 06:25:29;;;;;;;3.67;2.90;;;6.10;99.90;;;;;;5075495;28;20193;-75
2020/12/30 06:27:56;;;;;;;5.50;3.37;;;6.10;99.90;;;;;;5075197;28;20651;-75
2020/12/30 06:30:23;;;;;;;6.77;3.20;;;6.20;99.90;;;;;;5072895;28;20205;-75
2020/12/30 06:32:50;;;;;;;4.40;3.00;;;6.20;99.90;;;;;;5074525;28;20228;-75
2020/12/30 06:35:25;;;;;;;5.37;3.43;;;6.20;99.90;;;;;;5073968;28;20209;-76
2020/12/30 06:37:52;;;;;;;5.30;3.17;;;6.20;99.90;;;;;;5072156;28;20649;-75
2020/12/30 06:40:32;;;;;;;3.50;2.57;;;6.20;99.90;;;;;;5074782;28;20197;-76
2020/12/30 06:43:00;;;;;;;4.63;2.90;;;6.30;99.90;;;;;;5073870;28;20241;-75
2020/12/30 06:45:52;;;;;;;6.23;3.10;;;6.30;99.90;;;;;;5078139;28;20244;-75
2020/12/30 06:48:21;;;;;;;6.07;3.17;;;6.30;99.90;;;;;;5076270;28;20328;-75
2020/12/30 06:50:49;;;;;;;6.23;3.13;;;6.40;99.90;;;;;;5074612;28;20243;-75
2020/12/30 06:53:34;;;;;;;4.10;3.00;;;6.50;99.90;;;;;;5074570;28;20198;-76
2020/12/30 06:56:03;;;;;;;5.13;2.80;;;6.50;99.90;;;;;;5070484;28;20651;-76
2020/12/30 06:58:47;;;;;;;5.70;2.67;;;6.60;99.90;;;;;;5071016;28;20634;-77
2020/12/30 07:01:14;;;;;;;4.30;2.60;;;6.60;99.90;;;;;;5076068;28;20229;-76
2020/12/30 07:03:41;;;;;;;4.57;2.87;;;6.60;99.90;;;;;;5077799;28;20646;-77
2020/12/30 07:06:25;;;;;;;7.67;3.07;;;6.60;99.90;;;;;;5073277;28;20296;-76
2020/12/30 07:08:52;;;;;;;5.13;3.17;;;6.60;99.90;;;;;;5074001;28;20229;-75
2020/12/30 07:11:53;;;;;;;4.73;3.47;;;6.60;99.90;;;;;;5074426;28;20303;-76
2020/12/30 07:14:22;;;;;;;7.67;3.53;;;6.50;99.90;;;;;;5012047;28;20221;-76
2020/12/30 07:16:51;;;;;;;7.70;3.47;;;6.50;99.90;;;;;;5007018;28;20314;-76
2020/12/30 07:19:20;;;;;;;5.60;3.77;;;6.40;99.90;;;;;;5040968;28;20335;-76
2020/12/30 07:21:49;;;;;;;5.03;3.53;;;6.40;99.90;;;;;;5065326;28;20652;-76
2020/12/30 07:24:20;;;;;;;5.43;3.27;;;6.30;99.90;;;;;;5074616;28;20209;-76
2020/12/30 07:26:52;;;;;;;7.40;4.00;;;6.30;99.90;;;;;;5071415;28;20201;-76
2020/12/30 07:29:22;;;;;;;6.03;3.77;;;6.40;99.90;;;;;;5071965;28;20211;-78
2020/12/30 07:31:51;;;;;;;7.97;3.97;;;6.30;99.90;;;;;;5071397;28;20294;-77
2020/12/30 07:34:24;;;;;;;6.67;3.90;;;6.20;99.90;;;;;;5073134;28;20217;-78
2020/12/30 07:36:52;;;;;;;6.87;4.23;;;6.30;99.90;;;;;;5075338;28;20727;-73
2020/12/30 07:39:24;;;;;;;7.97;4.97;;;6.30;99.90;;;;;;5073487;28;20205;-74
2020/12/30 07:41:51;;;;;;;7.80;4.53;;;6.30;99.90;;;;;;5073185;28;20214;-75
2020/12/30 07:44:20;;;;;;;7.03;4.23;;;6.40;99.90;;;;;;5074787;28;20292;-76
2020/12/30 07:46:47;;;;;;;6.43;4.30;;;6.50;99.90;;;;;;5075363;28;20243;-76
2020/12/30 07:49:16;;;;;;;10.07;4.67;;;6.50;99.90;;;;;;5073555;28;20244;-75
2020/12/30 07:51:48;;;;;;;6.77;3.87;;;6.60;99.90;;;;;;5070967;28;20315;-76
2020/12/30 07:54:16;;;;;;;7.50;4.90;;;6.60;99.90;;;;;;5069148;28;20746;-74
2020/12/30 07:56:42;;;;;;;8.40;4.93;;;6.60;99.90;;;;;;5069408;28;20239;-76
2020/12/30 07:59:10;;;;;;;6.47;4.10;;;6.60;99.90;;;;;;5069659;28;20288;-76
2020/12/30 08:01:37;;;;;;;5.93;4.37;;;6.70;99.90;;;;;;5069297;28;20702;-76
2020/12/30 08:04:10;;;;;;;8.37;4.87;;;6.70;99.90;;;;;;5066398;28;20299;-75
2020/12/30 08:06:46;;;;;;;7.57;4.13;;;6.80;99.90;;;;;;5069313;28;20296;-75
2020/12/30 08:09:13;;;;;;;8.77;4.73;;;6.90;99.90;;;;;;5068407;28;20244;-75
2020/12/30 08:11:53;;;;;;;8.70;4.80;;;6.90;99.90;;;;;;5076500;28;20221;-76
2020/12/30 08:14:22;;;;;;;7.63;4.80;;;7.00;99.90;;;;;;5075854;28;20603;-75
2020/12/30 08:17:07;;;;;;;6.87;4.40;;;7.00;99.90;;;;;;5073350;28;20204;-75
2020/12/30 08:19:39;;;;;;;8.67;4.47;;;7.00;99.90;;;;;;5075023;28;20259;-74
2020/12/30 08:22:13;;;;;;;7.53;3.80;;;7.00;99.90;;;;;;5068325;28;20303;-74
2020/12/30 08:24:42;;;;;;;9.23;4.33;;;7.00;99.90;;;;;;5074777;28;20296;-75
2020/12/30 08:27:10;;;;;;;7.73;4.33;;;7.00;99.90;;;;;;5074110;28;20208;-76
2020/12/30 08:29:38;;;;;;;5.43;4.10;;;6.90;99.90;;;;;;5074381;28;20266;-76
2020/12/30 08:32:13;;;;;;;7.60;4.00;;;7.00;99.90;;;;;;5071655;28;20228;-75
2020/12/30 08:34:44;;;;;;;9.00;4.40;;;7.10;99.90;;;;;;5070598;28;20222;-73
2020/12/30 08:37:14;;;;;;;10.43;4.40;;;7.10;99.90;;;;;;5073061;28;20200;-77
2020/12/30 08:39:46;;;;;;;12.70;4.90;;;7.30;99.90;;;;;;5074654;28;20232;-75
2020/12/30 08:42:45;;;;;;;8.53;4.47;;;7.30;99.90;;;;;;5074504;28;20304;-74
2020/12/30 08:45:13;;;;;;;8.00;4.53;;;7.30;99.90;;;;;;5061738;28;20288;-75
2020/12/30 08:47:42;;;;;;;8.00;4.67;;;7.30;99.90;;;;;;5073922;28;20209;-74
2020/12/30 08:50:09;;;;;;;6.87;4.10;;;7.20;99.90;;;;;;5072913;28;20219;-76
2020/12/30 08:52:40;;;;;;;9.67;4.17;;;7.20;99.90;;;;;;5073629;28;20288;-75
2020/12/30 08:55:07;;;;;;;10.03;4.27;;;7.20;99.90;;;;;;5074222;28;20212;-75
2020/12/30 08:57:33;;;;;;;10.50;4.27;;;7.20;99.90;;;;;;5072518;28;20391;-75
2020/12/30 09:00:13;;;;;;;9.17;4.77;;;7.20;99.90;;;;;;5070935;28;20262;-75
2020/12/30 09:02:41;;;;;;;7.13;4.13;;;7.20;99.90;;;;;;5070929;28;20224;-75
2020/12/30 09:05:07;;;;;;;14.00;8.10;;;7.30;99.90;;;;;;5076620;28;20248;-76
2020/12/30 09:07:34;;;;;;;11.70;6.20;;;7.30;99.90;;;;;;5071389;28;20347;-76
2020/12/30 09:10:10;;;;;;;11.67;5.07;;;7.40;99.90;;;;;;5072761;28;20268;-75
2020/12/30 09:12:38;;;;;;;8.30;4.37;;;7.50;99.90;;;;;;5071127;28;20366;-76
2020/12/30 09:15:05;;;;;;;10.40;4.43;;;7.50;99.90;;;;;;5066602;28;20237;-76
2020/12/30 09:17:32;;;;;;;6.03;4.23;;;7.60;99.90;;;;;;5064755;28;20272;-76
2020/12/30 09:20:13;;;;;;;9.77;4.60;;;7.50;99.90;;;;;;5066087;28;20209;-75
2020/12/30 09:22:42;;;;;;;5.83;4.00;;;7.50;99.90;;;;;;5066899;28;20221;-76
2020/12/30 09:25:24;;;;;;;14.27;4.60;;;7.50;99.90;;;;;;5068642;28;20235;-76
2020/12/30 09:27:52;;;;;;;7.10;4.20;;;7.60;99.90;;;;;;5078308;28;20263;-76
2020/12/30 09:30:23;;;;;;;6.70;4.30;;;7.70;99.90;;;;;;5070146;28;20213;-75
2020/12/30 09:32:50;;;;;;;8.03;4.57;;;7.80;99.90;;;;;;5070390;28;20216;-75
2020/12/30 09:35:19;;;;;;;6.67;4.70;;;7.80;99.90;;;;;;5072596;28;20273;-76
2020/12/30 09:37:56;;;;;;;10.53;5.43;;;7.80;99.90;;;;;;5070278;28;20216;-76
2020/12/30 09:40:24;;;;;;;10.27;4.90;;;7.80;99.90;;;;;;5070847;28;20224;-77
2020/12/30 09:42:51;;;;;;;7.43;5.03;;;7.70;99.90;;;;;;5065610;28;20293;-77
2020/12/30 09:45:19;;;;;;;6.70;4.70;;;7.70;99.90;;;;;;5069135;28;20284;-75
2020/12/30 09:47:46;;;;;;;8.20;5.17;;;7.60;99.90;;;;;;5066267;28;20237;-78
2020/12/30 09:50:14;;;;;;;9.37;5.27;;;7.60;99.90;;;;;;5068615;28;20320;-77
2020/12/30 09:52:43;;;;;;;10.97;5.20;;;7.50;99.90;;;;;;5068681;28;20204;-75
2020/12/30 09:55:11;;;;;;;9.53;5.00;;;7.50;99.90;;;;;;5069729;28;20292;-75
2020/12/30 09:57:39;;;;;;;9.40;5.60;;;7.50;99.90;;;;;;5062992;28;20213;-76
2020/12/30 10:00:07;;;;;;;7.90;5.33;;;7.50;99.90;;;;;;5069217;28;20221;-76
2020/12/30 10:02:34;;;;;;;8.30;5.23;;;7.40;99.90;;;;;;5073994;28;20257;-76
2020/12/30 10:05:00;;;;;;;9.43;5.43;;;7.40;99.90;;;;;;5074936;28;20197;-76
2020/12/30 10:07:28;;;;;;;11.07;5.70;;;7.30;99.90;;;;;;5075711;28;20553;-77
2020/12/30 10:09:56;;;;;;;9.80;5.67;;;7.30;99.90;;;;;;5072571;28;20323;-76
2020/12/30 10:12:23;;;;;;;10.13;5.27;;;7.30;99.90;;;;;;5072014;28;20236;-76
2020/12/30 10:14:50;;;;;;;12.63;5.27;;;7.40;99.90;;;;;;5071357;28;20289;-76
2020/12/30 10:17:16;;;;;;;6.93;4.90;;;7.40;99.90;;;;;;5069596;28;20650;-76
2020/12/30 10:19:43;;;;;;;10.27;5.27;;;7.40;99.90;;;;;;5071537;28;20292;-78
2020/12/30 10:22:10;;;;;;;8.40;4.90;;;7.40;99.90;;;;;;5072958;28;20225;-74
2020/12/30 10:24:44;;;;;;;11.10;5.77;;;7.40;99.90;;;;;;5074617;28;20662;-75
2020/12/30 10:27:11;;;;;;;9.87;5.57;;;7.40;99.90;;;;;;5074558;28;20205;-76
2020/12/30 10:29:38;;;;;;;7.60;5.27;;;7.40;99.90;;;;;;5072456;28;20225;-76
2020/12/30 10:32:04;;;;;;;10.23;5.53;;;7.40;99.90;;;;;;5067288;28;20206;-77
2020/12/30 10:34:32;;;;;;;9.73;5.43;;;7.50;99.90;;;;;;5063897;28;21163;-77
2020/12/30 10:36:59;;;;;;;10.07;5.37;;;7.50;99.90;;;;;;5070846;28;20205;-77
2020/12/30 10:39:25;;;;;;;8.43;4.97;;;7.50;99.90;;;;;;5050441;28;20241;-75
2020/12/30 10:41:54;;;;;;;13.10;7.57;;;7.40;99.90;;;;;;5049686;28;20770;-77
2020/12/30 10:44:21;;;;;;;9.10;5.47;;;7.50;99.90;;;;;;5053297;28;20299;-76
2020/12/30 10:46:48;;;;;;;11.33;6.20;;;7.50;99.90;;;;;;5069270;28;20220;-75
2020/12/30 10:49:15;;;;;;;8.77;5.37;;;7.50;99.90;;;;;;5065077;28;20263;-75
2020/12/30 10:51:45;;;;;;;8.40;5.30;;;7.50;99.90;;;;;;5073454;28;20265;-76
2020/12/30 10:54:12;;;;;;;11.20;5.70;;;7.60;99.90;;;;;;5070754;28;20288;-77
2020/12/30 10:56:38;;;;;;;9.87;5.17;;;7.60;99.90;;;;;;5074906;28;20210;-78
2020/12/30 10:59:05;;;;;;;9.87;5.00;;;7.60;99.90;;;;;;5070132;28;20204;-77
2020/12/30 11:01:32;;;;;;;7.67;4.80;;;7.60;99.90;;;;;;5066613;28;20722;-77
2020/12/30 11:03:58;;;;;;;8.20;4.77;;;7.60;99.90;;;;;;5071592;28;20625;-78
2020/12/30 11:06:25;;;;;;;8.77;4.90;;;7.60;99.90;;;;;;5066139;28;20292;-77
2020/12/30 11:08:51;;;;;;;7.43;4.40;;;7.70;99.90;;;;;;5070750;28;20282;-77
2020/12/30 11:11:18;;;;;;;8.77;4.07;;;7.60;99.90;;;;;;5071988;28;20283;-77
2020/12/30 11:13:44;;;;;;;5.20;3.60;;;7.60;99.90;;;;;;5073000;28;20274;-77
2020/12/30 11:16:11;;;;;;;10.87;4.90;;;7.60;99.90;;;;;;5070882;28;20538;-77
2020/12/30 11:18:38;;;;;;;7.80;4.53;;;7.50;99.90;;;;;;5075898;28;20216;-77
2020/12/30 11:21:04;;;;;;;6.70;5.17;;;7.50;99.90;;;;;;5070939;28;20253;-75
2020/12/30 11:23:31;;;;;;;9.40;4.87;;;7.50;99.90;;;;;;5076158;28;20252;-78
2020/12/30 11:25:57;;;;;;;9.90;5.10;;;7.50;99.90;;;;;;5068553;28;20216;-76
2020/12/30 11:28:24;;;;;;;11.67;6.00;;;7.40;99.90;;;;;;5065598;28;20213;-74
2020/12/30 11:30:50;;;;;;;8.37;5.07;;;7.50;99.90;;;;;;5072745;28;20592;-76
2020/12/30 11:33:17;;;;;;;7.73;5.10;;;7.50;99.90;;;;;;5072153;28;20281;-75
2020/12/30 11:35:45;;;;;;;7.73;4.93;;;7.60;99.90;;;;;;5071718;28;20643;-75
2020/12/30 11:38:12;;;;;;;7.30;4.80;;;7.60;99.90;;;;;;5068518;28;20236;-78
2020/12/30 11:40:40;;;;;;;7.43;4.53;;;7.60;99.90;;;;;;5068289;28;20292;-76
2020/12/30 11:43:06;;;;;;;10.63;5.37;;;7.70;99.90;;;;;;5073452;28;20229;-75
2020/12/30 11:45:33;;;;;;;8.20;5.03;;;7.70;99.90;;;;;;5074006;28;20296;-74
2020/12/30 11:47:59;;;;;;;10.03;5.10;;;7.70;99.90;;;;;;5073918;28;20390;-73
2020/12/30 11:50:26;;;;;;;14.23;5.77;;;7.70;99.90;;;;;;5069280;28;20205;-75
2020/12/30 11:52:55;;;;;;;7.07;4.47;;;7.70;99.90;;;;;;5075162;28;20204;-74
2020/12/30 11:55:21;;;;;;;8.10;5.00;;;7.70;99.90;;;;;;5071050;28;20822;-74
2020/12/30 11:57:48;;;;;;;6.80;4.73;;;7.70;99.90;;;;;;5072731;28;20198;-78
2020/12/30 12:00:15;;;;;;;8.23;5.07;;;7.80;99.90;;;;;;5077940;28;20205;-76
2020/12/30 12:02:41;;;;;;;8.77;6.20;;;7.80;99.90;;;;;;5072835;28;20225;-74
2020/12/30 12:05:11;;;;;;;9.43;6.23;;;7.90;99.90;;;;;;5069133;28;20237;-74
2020/12/30 12:07:38;;;;;;;12.77;7.47;;;7.80;99.90;;;;;;5067496;28;20307;-74
2020/12/30 12:10:07;;;;;;;11.30;7.40;;;7.80;99.90;;;;;;5066578;28;20332;-75
2020/12/30 12:12:34;;;;;;;14.83;7.83;;;7.80;99.90;;;;;;5072084;28;20221;-75
2020/12/30 12:15:00;;;;;;;13.50;7.33;;;7.80;99.90;;;;;;5069185;28;20236;-74
2020/12/30 12:17:27;;;;;;;16.00;8.67;;;7.80;99.90;;;;;;5069764;28;20210;-75
2020/12/30 12:19:54;;;;;;;16.10;9.37;;;7.70;99.90;;;;;;5070626;28;20709;-74
2020/12/30 12:22:20;;;;;;;15.73;9.23;;;7.60;99.90;;;;;;5072450;28;20221;-75
2020/12/30 12:24:47;;;;;;;14.07;8.40;;;7.60;99.90;;;;;;5067390;28;20237;-76
2020/12/30 12:27:14;;;;;;;15.03;8.73;;;7.60;99.90;;;;;;5070386;28;20208;-76
2020/12/30 12:29:49;;;;;;;16.50;8.67;;;7.50;99.90;;;;;;5066766;28;20726;-73
2020/12/30 12:32:18;;;;;;;16.33;8.73;;;7.50;99.90;;;;;;5072933;28;20209;-76
2020/12/30 12:34:46;;;;;;;13.30;8.97;;;7.40;99.90;;;;;;5070857;28;20373;-74
2020/12/30 12:37:14;;;;;;;14.23;8.97;;;7.40;99.90;;;;;;5067430;28;20259;-77
2020/12/30 12:39:42;;;;;;;12.40;8.73;;;7.40;99.90;;;;;;5069158;28;20211;-73
2020/12/30 12:42:09;;;;;;;15.30;8.63;;;7.30;99.90;;;;;;5067826;28;20225;-75
2020/12/30 12:44:37;;;;;;;13.77;8.37;;;7.30;99.90;;;;;;5067747;28;20205;-76
2020/12/30 12:47:05;;;;;;;15.07;9.20;;;7.30;99.90;;;;;;5072803;28;20205;-74
2020/12/30 12:49:32;;;;;;;16.00;8.47;;;7.30;99.90;;;;;;5070422;28;20673;-76
2020/12/30 12:51:59;;;;;;;13.73;8.83;;;7.30;99.90;;;;;;5070200;28;20211;-76
2020/12/30 12:54:26;;;;;;;13.07;8.03;;;7.20;99.90;;;;;;5071979;28;20304;-74
2020/12/30 12:56:57;;;;;;;13.60;8.00;;;7.20;99.90;;;;;;5071404;28;20236;-76
2020/12/30 12:59:25;;;;;;;18.43;8.60;;;7.20;99.90;;;;;;5074373;28;20208;-77